Steuben, Indiana
Current Conditions -  °F | °C
As of 12:15 PM on Thursday 30 Oct 2014 (Local Time) from KANQ Reporting Station
Overcast Overcast  
Wind Chill: 44°   Ceiling: 4100
Heat Index: 46°   Visibility: 10mi
Dew Point: 39°   Wind: 5mph
Humidity: 76%   Direction: 230°SW
Pressure: 30.14"   Gusts: NA
Location:  41.5331°N, 85.0482°W
Report Text: KANQ 301615Z AUTO 23004KT 10SM OVC041 08/04 A3014 RMK
Loading
Personal Weather Stations






























Interactive Weather Map
Tropical Storm Tracking
New forecast layout! Learn more

10-Day Weather Forecast

Advertisements
Track Severe Weather on mobile